Time;durP1;ratioP1;P1;durP2;ratioP2;P2;SDS_P1;SDS_P2;PMS_P1;PMS_P2;Temp;Humidity;BMP_temperature;BMP_pressure;BME280_temperature;BME280_humidity;BME280_pressure;Samples;Min_cycle;Max_cycle;Signal;HPM_P1;HPM_P2
2022/11/19 00:01:09;;;;;;;5.50;3.22;;;20.00;1.00;;;;;;4844204;29;20121;-39
2022/11/19 00:03:37;;;;;;;5.22;3.97;;;19.90;1.00;;;;;;4827611;29;20480;-39
2022/11/19 00:06:08;;;;;;;4.15;3.08;;;19.90;1.00;;;;;;4844150;29;20102;-39
2022/11/19 00:08:35;;;;;;;5.60;4.13;;;19.80;1.00;;;;;;4844056;29;20046;-39
2022/11/19 00:11:07;;;;;;;4.68;3.42;;;19.70;1.00;;;;;;4844059;29;20541;-39
2022/11/19 00:13:37;;;;;;;4.95;3.45;;;19.70;1.00;;;;;;4843611;29;20042;-39
2022/11/19 00:16:12;;;;;;;4.22;3.20;;;19.60;1.00;;;;;;4843986;29;20525;-39
2022/11/19 00:18:39;;;;;;;5.22;3.75;;;19.60;1.00;;;;;;4843888;29;20046;-38
2022/11/19 00:21:11;;;;;;;5.53;4.60;;;19.50;1.00;;;;;;4843898;29;20038;-38
2022/11/19 00:23:39;;;;;;;4.10;3.67;;;19.50;1.00;;;;;;4843462;29;20566;-38
2022/11/19 00:26:11;;;;;;;5.55;4.50;;;19.40;1.00;;;;;;4843759;29;20139;-38
2022/11/19 00:28:38;;;;;;;5.45;4.38;;;19.30;1.00;;;;;;4843753;29;20155;-38
2022/11/19 00:31:06;;;;;;;5.07;3.90;;;19.30;1.00;;;;;;4843664;29;20125;-39
2022/11/19 00:33:34;;;;;;;6.90;4.22;;;19.20;1.00;;;;;;4843320;29;20050;-38
2022/11/19 00:36:01;;;;;;;6.30;3.95;;;19.20;1.00;;;;;;4843580;29;20052;-38
2022/11/19 00:38:29;;;;;;;7.45;4.38;;;19.20;1.00;;;;;;4843406;29;20054;-38
2022/11/19 00:40:56;;;;;;;5.28;4.15;;;19.10;1.00;;;;;;4843658;29;20402;-39
2022/11/19 00:46:09;;;;;;;6.10;4.00;;;19.00;1.00;;;;;;4843433;29;20102;-38
2022/11/19 00:48:37;;;;;;;4.65;3.83;;;19.00;1.00;;;;;;4843247;29;20038;-38
2022/11/19 00:51:04;;;;;;;4.80;3.83;;;18.90;1.00;;;;;;4843514;29;20042;-38
2022/11/19 00:53:31;;;;;;;5.60;4.30;;;18.90;1.00;;;;;;4842099;29;20110;-38
2022/11/19 00:56:02;;;;;;;6.93;4.70;;;18.80;1.00;;;;;;4843318;29;20042;-38
2022/11/19 00:58:29;;;;;;;5.78;4.38;;;18.80;1.00;;;;;;4843155;29;20562;-38
2022/11/19 01:00:56;;;;;;;5.13;4.00;;;18.80;1.00;;;;;;4843046;29;20054;-38
2022/11/19 01:03:23;;;;;;;5.43;3.85;;;18.70;1.00;;;;;;4842884;29;20046;-38
2022/11/19 01:05:51;;;;;;;5.88;3.65;;;18.70;1.00;;;;;;4843062;29;20049;-38
2022/11/19 01:08:17;;;;;;;7.03;4.35;;;18.60;1.00;;;;;;4842989;29;20125;-38
2022/11/19 01:10:45;;;;;;;5.45;4.18;;;18.60;1.00;;;;;;4843038;29;20498;-38
2022/11/19 01:15:57;;;;;;;6.13;4.32;;;18.50;1.00;;;;;;4843004;29;20084;-38
2022/11/19 01:18:23;;;;;;;5.40;4.28;;;18.50;1.00;;;;;;4842855;29;20060;-39
2022/11/19 01:20:50;;;;;;;5.95;4.72;;;18.40;1.00;;;;;;4842879;29;20581;-38
2022/11/19 01:23:17;;;;;;;5.38;4.35;;;18.40;1.00;;;;;;4827942;29;20050;-38
2022/11/19 01:25:44;;;;;;;5.90;4.50;;;18.40;1.00;;;;;;4824410;29;20418;-38
2022/11/19 01:28:10;;;;;;;5.00;3.97;;;18.30;1.00;;;;;;4824689;29;20038;-38
2022/11/19 01:30:41;;;;;;;5.03;4.20;;;18.30;1.00;;;;;;4824386;29;20047;-38
2022/11/19 01:33:08;;;;;;;4.45;3.17;;;18.20;1.00;;;;;;4824167;29;20070;-38
2022/11/19 01:35:36;;;;;;;5.10;3.90;;;18.20;1.00;;;;;;4824267;29;20053;-38
2022/11/19 01:38:03;;;;;;;5.18;3.65;;;18.20;1.00;;;;;;4824247;29;20054;-38
2022/11/19 01:40:31;;;;;;;4.60;4.13;;;18.10;1.00;;;;;;4824127;29;20096;-38
2022/11/19 01:42:58;;;;;;;6.80;4.25;;;18.10;1.00;;;;;;4823981;29;20114;-38
2022/11/19 01:45:26;;;;;;;6.07;4.32;;;18.10;1.00;;;;;;4824188;29;20490;-39
2022/11/19 01:47:55;;;;;;;5.00;4.03;;;18.00;1.00;;;;;;4824116;29;20095;-39
2022/11/19 01:50:24;;;;;;;5.47;3.55;;;18.00;1.00;;;;;;4824099;29;20506;-39
2022/11/19 01:52:50;;;;;;;4.28;3.13;;;17.90;1.00;;;;;;4823888;29;20072;-39
2022/11/19 01:55:18;;;;;;;5.43;4.00;;;17.90;1.00;;;;;;4823993;29;20439;-39
2022/11/19 01:57:49;;;;;;;6.20;3.85;;;17.90;1.00;;;;;;4823933;29;20053;-39
2022/11/19 02:00:16;;;;;;;5.28;3.38;;;17.90;1.00;;;;;;4824020;29;20047;-39
2022/11/19 02:02:42;;;;;;;4.13;3.47;;;17.80;1.00;;;;;;4823717;29;20235;-39
2022/11/19 02:05:09;;;;;;;5.68;3.92;;;17.80;1.00;;;;;;4823652;29;20101;-39
2022/11/19 02:07:40;;;;;;;3.63;3.17;;;17.70;1.00;;;;;;4823644;29;20133;-40
2022/11/19 02:10:07;;;;;;;5.00;4.03;;;17.70;1.00;;;;;;4823884;29;20054;-39
2022/11/19 02:12:58;;;;;;;4.10;3.00;;;17.70;1.00;;;;;;4823609;29;20057;-39
2022/11/19 02:15:33;;;;;;;4.82;3.67;;;17.70;1.00;;;;;;4823784;29;20057;-39
2022/11/19 02:18:16;;;;;;;4.25;3.33;;;17.60;1.00;;;;;;4823906;29;20095;-39
2022/11/19 02:21:10;;;;;;;3.58;2.70;;;17.60;1.00;;;;;;4823795;29;20057;-39
2022/11/19 02:24:10;;;;;;;4.65;3.05;;;17.60;1.00;;;;;;4823474;29;20046;-39
2022/11/19 02:27:12;;;;;;;4.30;2.78;;;17.50;1.00;;;;;;4823664;29;20081;-39
2022/11/19 02:30:09;;;;;;;5.60;3.30;;;17.50;1.00;;;;;;4823558;29;20062;-39
2022/11/19 02:33:02;;;;;;;4.65;3.22;;;17.50;1.00;;;;;;4823255;29;20046;-39
2022/11/19 02:35:39;;;;;;;5.13;3.13;;;17.40;1.00;;;;;;4823505;29;20046;-39
2022/11/19 02:38:14;;;;;;;4.10;2.67;;;17.40;1.00;;;;;;4823427;29;20051;-39
2022/11/19 02:40:47;;;;;;;3.45;2.55;;;17.40;1.00;;;;;;4823599;29;20525;-39
2022/11/19 02:43:23;;;;;;;3.22;2.42;;;17.40;1.00;;;;;;4823188;29;20107;-38
2022/11/19 02:45:56;;;;;;;4.32;3.08;;;17.30;1.00;;;;;;4823594;29;20125;-38
2022/11/19 02:48:46;;;;;;;3.60;2.95;;;17.30;1.00;;;;;;4823550;29;20487;-39
2022/11/19 02:51:14;;;;;;;4.15;2.53;;;17.30;1.00;;;;;;4823291;29;20061;-39
2022/11/19 02:53:41;;;;;;;4.63;2.97;;;17.30;1.00;;;;;;4823002;29;20125;-38
2022/11/19 02:56:13;;;;;;;3.97;2.70;;;17.20;1.00;;;;;;4828441;29;20453;-38
2022/11/19 03:04:31;;;;;;;4.25;2.33;;;17.20;1.00;;;;;;4830309;29;20502;-38
2022/11/19 03:07:14;;;;;;;4.13;2.78;;;17.10;1.00;;;;;;4838822;29;20074;-38
2022/11/19 03:09:45;;;;;;;2.58;1.90;;;17.10;1.00;;;;;;4836795;23;20058;-39
2022/11/19 03:12:17;;;;;;;4.38;2.97;;;17.10;1.00;;;;;;4835284;29;20060;-40
2022/11/19 03:17:57;;;;;;;3.75;2.13;;;17.10;1.00;;;;;;4835772;29;20046;-40
2022/11/19 03:20:39;;;;;;;3.53;2.50;;;17.00;1.00;;;;;;4805900;29;20456;-39
2022/11/19 03:23:24;;;;;;;3.60;2.65;;;17.00;1.00;;;;;;4826307;29;20051;-39
2022/11/19 03:25:58;;;;;;;4.35;2.47;;;17.00;1.00;;;;;;4822477;29;20046;-39
2022/11/19 03:28:32;;;;;;;2.72;1.80;;;16.90;1.00;;;;;;4813982;29;20050;-40
2022/11/19 03:31:01;;;;;;;4.03;2.35;;;16.90;1.00;;;;;;4826634;29;20050;-39
2022/11/19 03:33:35;;;;;;;3.70;2.28;;;16.90;1.00;;;;;;4826179;29;20046;-38
2022/11/19 03:36:10;;;;;;;7.82;1.92;;;16.90;1.00;;;;;;4826386;29;20046;-38
2022/11/19 03:38:45;;;;;;;2.80;1.90;;;16.90;1.00;;;;;;4826426;29;20469;-39
2022/11/19 03:41:16;;;;;;;2.20;1.85;;;16.80;1.00;;;;;;4826229;29;20414;-39
2022/11/19 03:43:47;;;;;;;3.38;2.03;;;16.80;1.00;;;;;;4810189;29;20099;-39
2022/11/19 03:46:16;;;;;;;3.33;1.75;;;16.80;1.00;;;;;;4826313;29;20125;-40
2022/11/19 03:48:45;;;;;;;3.85;2.65;;;16.80;1.00;;;;;;4826027;29;20085;-39
2022/11/19 03:51:23;;;;;;;2.47;1.80;;;16.70;1.00;;;;;;4826029;29;20563;-39
2022/11/19 03:53:49;;;;;;;3.72;1.70;;;16.70;1.00;;;;;;4825705;29;20047;-39
2022/11/19 03:56:22;;;;;;;3.40;1.77;;;16.70;1.00;;;;;;4824523;29;20417;-38
2022/11/19 03:58:51;;;;;;;3.67;2.13;;;16.70;1.00;;;;;;4825896;29;20491;-38
2022/11/19 04:01:18;;;;;;;3.10;1.77;;;16.70;1.00;;;;;;4825807;29;20048;-39
2022/11/19 04:04:34;;;;;;;2.67;1.83;;;16.60;1.00;;;;;;4809439;29;20055;-39
2022/11/19 04:06:32;;;;;;;2.05;1.40;;;16.60;1.00;;;;;;4825717;29;20122;-39
2022/11/19 04:08:59;;;;;;;3.10;2.20;;;16.60;1.00;;;;;;4825720;29;20046;-39
2022/11/19 04:11:25;;;;;;;3.38;1.17;;;16.60;1.00;;;;;;4825797;29;20058;-38
2022/11/19 04:13:51;;;;;;;1.88;1.38;;;16.50;1.00;;;;;;4825505;29;20034;-39
2022/11/19 04:16:18;;;;;;;2.88;1.60;;;16.50;1.00;;;;;;4825593;29;20047;-38
2022/11/19 04:18:44;;;;;;;2.65;1.63;;;16.50;1.00;;;;;;4825522;29;20107;-39
2022/11/19 04:21:11;;;;;;;2.20;1.40;;;16.50;1.00;;;;;;4825690;29;20066;-39
2022/11/19 04:23:38;;;;;;;1.45;1.13;;;16.50;1.00;;;;;;4825334;29;20161;-38
2022/11/19 04:26:05;;;;;;;2.70;1.23;;;16.50;1.00;;;;;;4824066;29;20154;-39
2022/11/19 04:28:31;;;;;;;1.73;1.23;;;16.40;1.00;;;;;;4824175;29;20122;-39
2022/11/19 04:30:58;;;;;;;2.00;1.13;;;16.40;1.00;;;;;;4825534;29;20107;-39
2022/11/19 04:33:25;;;;;;;3.30;1.85;;;16.40;1.00;;;;;;4825250;29;20402;-39
2022/11/19 04:35:51;;;;;;;3.83;1.77;;;16.40;1.00;;;;;;4825397;29;20433;-39
2022/11/19 04:38:18;;;;;;;2.75;1.23;;;16.40;1.00;;;;;;4825412;29;20387;-39
2022/11/19 04:40:45;;;;;;;3.15;1.35;;;16.30;1.00;;;;;;4825199;29;20046;-39
2022/11/19 04:43:12;;;;;;;2.10;1.30;;;16.30;1.00;;;;;;4825028;29;20572;-39
2022/11/19 04:45:39;;;;;;;2.25;1.48;;;16.30;1.00;;;;;;4825190;29;20475;-38
2022/11/19 04:48:06;;;;;;;2.35;1.13;;;16.30;1.00;;;;;;4825015;29;20054;-39
2022/11/19 04:50:32;;;;;;;2.65;1.65;;;16.30;1.00;;;;;;4825064;29;20046;-39
2022/11/19 04:52:59;;;;;;;1.92;1.17;;;16.30;1.00;;;;;;4824781;29;20050;-39
2022/11/19 04:55:26;;;;;;;3.50;1.25;;;16.20;1.00;;;;;;4824892;29;20046;-39
2022/11/19 04:57:52;;;;;;;2.20;1.25;;;16.20;1.00;;;;;;4824929;29;20458;-39
2022/11/19 05:00:19;;;;;;;1.30;1.05;;;16.20;1.00;;;;;;4824838;29;20495;-39
2022/11/19 05:02:46;;;;;;;3.08;1.48;;;16.20;1.00;;;;;;4825014;29;20467;-38
2022/11/19 05:05:13;;;;;;;1.73;1.38;;;16.20;1.00;;;;;;4824826;29;20558;-38
2022/11/19 05:07:39;;;;;;;2.03;1.08;;;16.10;1.00;;;;;;4824850;29;20152;-39
2022/11/19 05:10:06;;;;;;;2.90;1.38;;;16.10;1.00;;;;;;4824719;29;20047;-39
2022/11/19 05:12:33;;;;;;;2.03;1.30;;;16.10;1.00;;;;;;4824425;29;20043;-39
2022/11/19 05:15:00;;;;;;;1.88;1.10;;;16.10;1.00;;;;;;4824586;29;20051;-38
2022/11/19 05:17:27;;;;;;;3.13;1.20;;;16.10;1.00;;;;;;4824910;29;20123;-39
2022/11/19 05:19:53;;;;;;;1.90;1.15;;;16.10;1.00;;;;;;4824624;29;20051;-39
2022/11/19 05:22:20;;;;;;;2.08;1.02;;;16.10;1.00;;;;;;4817217;29;20126;-38
2022/11/19 05:24:47;;;;;;;3.28;1.35;;;16.10;1.00;;;;;;4812306;29;20097;-38
2022/11/19 05:27:14;;;;;;;3.50;1.35;;;16.00;1.00;;;;;;4823178;29;20078;-38
2022/11/19 05:29:40;;;;;;;1.75;1.30;;;16.00;1.00;;;;;;4819745;29;20111;-38
2022/11/19 05:32:07;;;;;;;3.05;1.10;;;16.00;1.00;;;;;;4824452;29;20110;-39
2022/11/19 05:34:34;;;;;;;2.10;1.50;;;16.00;1.00;;;;;;4818831;29;20415;-39
2022/11/19 05:37:00;;;;;;;2.83;1.00;;;16.00;1.00;;;;;;4824299;29;20054;-39
2022/11/19 05:39:27;;;;;;;1.67;1.08;;;16.00;1.00;;;;;;4823844;29;20057;-39
2022/11/19 05:41:54;;;;;;;1.92;1.10;;;15.90;1.00;;;;;;4824360;29;20046;-39
2022/11/19 05:44:21;;;;;;;2.80;1.08;;;15.90;1.00;;;;;;4824073;29;20129;-39
2022/11/19 05:46:47;;;;;;;1.63;1.10;;;15.90;1.00;;;;;;4824283;29;20123;-39
2022/11/19 05:49:14;;;;;;;2.38;1.05;;;15.90;1.00;;;;;;4824134;29;20054;-39
2022/11/19 05:51:41;;;;;;;3.45;1.20;;;15.90;1.00;;;;;;4824410;29;20149;-39
2022/11/19 05:54:07;;;;;;;1.85;0.88;;;15.90;1.00;;;;;;4822696;29;20054;-38
2022/11/19 05:56:34;;;;;;;2.28;0.98;;;15.80;1.00;;;;;;4823918;29;20106;-38
2022/11/19 05:59:01;;;;;;;3.35;1.85;;;15.80;1.00;;;;;;4824002;29;20043;-38
2022/11/19 06:01:29;;;;;;;1.88;1.08;;;15.80;1.00;;;;;;4822838;29;20129;-39
2022/11/19 06:03:55;;;;;;;2.45;1.20;;;15.80;1.00;;;;;;4823707;29;20461;-39
2022/11/19 06:06:23;;;;;;;3.33;1.23;;;15.80;1.00;;;;;;4807587;29;20062;-39
2022/11/19 06:08:49;;;;;;;3.97;1.08;;;15.80;1.00;;;;;;4823767;29;20107;-39
2022/11/19 06:14:02;;;;;;;3.10;1.10;;;15.70;1.00;;;;;;4823751;29;20430;-39
2022/11/19 06:16:28;;;;;;;1.75;1.17;;;15.70;1.00;;;;;;4823739;29;20046;-39
2022/11/19 06:18:55;;;;;;;2.35;1.00;;;15.70;1.00;;;;;;4823820;29;20499;-39
2022/11/19 06:21:22;;;;;;;1.77;1.08;;;15.70;1.00;;;;;;4823971;29;20058;-39
2022/11/19 06:23:49;;;;;;;1.85;1.13;;;15.70;1.00;;;;;;4823213;29;20057;-39
2022/11/19 06:26:26;;;;;;;1.52;1.10;;;15.60;1.00;;;;;;4823628;29;20133;-38
2022/11/19 06:28:53;;;;;;;1.90;1.00;;;15.60;1.00;;;;;;4823738;29;20129;-39
2022/11/19 06:31:21;;;;;;;1.98;1.00;;;15.60;1.00;;;;;;4823483;29;20050;-38
2022/11/19 06:33:48;;;;;;;2.40;1.10;;;15.60;1.00;;;;;;4823359;29;20471;-38
2022/11/19 06:36:15;;;;;;;1.20;0.57;;;15.60;1.00;;;;;;4823266;29;20504;-38
2022/11/19 06:38:41;;;;;;;2.67;1.15;;;15.60;1.00;;;;;;4823462;29;20129;-39
2022/11/19 06:41:08;;;;;;;1.60;0.98;;;15.50;1.00;;;;;;4823421;29;20463;-39
2022/11/19 06:43:35;;;;;;;1.45;0.95;;;15.50;1.00;;;;;;4823129;29;20042;-38
2022/11/19 06:46:02;;;;;;;3.13;1.00;;;15.50;1.00;;;;;;4823714;29;20055;-39
2022/11/19 06:48:28;;;;;;;2.80;1.75;;;15.50;1.00;;;;;;4823273;29;20134;-38
2022/11/19 06:50:55;;;;;;;1.65;0.93;;;15.50;1.00;;;;;;4813149;29;20120;-39
2022/11/19 06:53:22;;;;;;;2.20;1.08;;;15.50;1.00;;;;;;4811162;29;20083;-39
2022/11/19 06:55:55;;;;;;;2.67;1.35;;;15.50;1.00;;;;;;4813882;29;20047;-39
2022/11/19 06:58:22;;;;;;;;;;;15.40;1.00;;;;;;4805157;29;20507;-39
2022/11/19 07:00:49;;;;;;;1.65;0.80;;;15.40;1.00;;;;;;4805184;29;19925;-39
2022/11/19 07:03:15;;;;;;;2.17;1.38;;;15.40;1.00;;;;;;4808462;29;20118;-39
2022/11/19 07:05:42;;;;;;;4.28;1.40;;;15.40;1.00;;;;;;4808088;29;20050;-39
2022/11/19 07:08:09;;;;;;;2.17;0.90;;;15.40;1.00;;;;;;4806317;29;20081;-39
2022/11/19 07:10:36;;;;;;;2.95;0.90;;;15.40;1.00;;;;;;4812251;29;20054;-39
2022/11/19 07:13:03;;;;;;;2.88;1.27;;;15.40;1.00;;;;;;4808052;29;20058;-39
2022/11/19 07:15:29;;;;;;;2.03;1.25;;;15.40;1.00;;;;;;4813677;29;20042;-39
2022/11/19 07:17:56;;;;;;;7.90;1.17;;;15.30;1.00;;;;;;4806129;29;20043;-39
2022/11/19 07:20:23;;;;;;;3.67;1.00;;;15.40;1.00;;;;;;4804006;29;20126;-39
2022/11/19 07:22:49;;;;;;;2.70;1.38;;;15.30;1.00;;;;;;4803161;29;20051;-38
2022/11/19 07:25:23;;;;;;;3.80;0.88;;;15.30;1.00;;;;;;4802946;29;20538;-38
2022/11/19 07:27:50;;;;;;;2.28;1.33;;;15.30;1.00;;;;;;4804274;29;20503;-39
2022/11/19 07:30:16;;;;;;;1.33;0.82;;;15.30;1.00;;;;;;4799723;29;20503;-39
2022/11/19 07:32:43;;;;;;;3.85;0.98;;;15.30;1.00;;;;;;4809943;29;20326;-39
2022/11/19 07:35:10;;;;;;;3.45;0.70;;;15.30;1.00;;;;;;4801544;29;20039;-39
2022/11/19 07:37:38;;;;;;;5.40;1.45;;;15.30;1.00;;;;;;4802524;29;20123;-39
2022/11/19 07:40:05;;;;;;;1.65;0.82;;;15.30;1.00;;;;;;4794022;29;20122;-40
2022/11/19 07:42:52;;;;;;;1.92;1.23;;;15.20;1.00;;;;;;4804410;29;20046;-38
2022/11/19 07:45:21;;;;;;;4.18;0.93;;;15.20;1.00;;;;;;4803093;29;20042;-39
2022/11/19 07:47:49;;;;;;;1.85;0.95;;;15.20;1.00;;;;;;4801566;29;20104;-39
2022/11/19 07:50:16;;;;;;;1.75;0.75;;;15.20;1.00;;;;;;4820060;29;20103;-39
2022/11/19 07:52:43;;;;;;;2.35;1.33;;;15.20;1.00;;;;;;4821139;29;20486;-39
2022/11/19 07:55:10;;;;;;;3.38;0.90;;;15.20;1.00;;;;;;4821571;29;20099;-39
2022/11/19 07:57:37;;;;;;;1.85;0.73;;;15.20;1.00;;;;;;4822019;29;20117;-40
2022/11/19 08:00:06;;;;;;;1.65;0.93;;;15.10;1.00;;;;;;4805401;29;20058;-40
2022/11/19 08:02:38;;;;;;;3.10;0.90;;;15.20;1.00;;;;;;4822721;29;20060;-39
2022/11/19 08:05:05;;;;;;;1.98;0.93;;;15.10;1.00;;;;;;4805723;29;20035;-39
2022/11/19 08:07:33;;;;;;;1.52;0.95;;;15.10;1.00;;;;;;4811486;29;20095;-39
2022/11/19 08:09:59;;;;;;;2.22;0.93;;;15.10;1.00;;;;;;4812948;29;20054;-38
2022/11/19 08:12:28;;;;;;;1.95;1.02;;;15.10;1.00;;;;;;4820997;29;20127;-40
2022/11/19 08:14:55;;;;;;;1.98;0.70;;;15.10;1.00;;;;;;4815334;29;20055;-38
2022/11/19 08:20:08;;;;;;;1.63;0.82;;;15.10;1.00;;;;;;4804743;29;20044;-39
2022/11/19 08:22:36;;;;;;;3.92;0.98;;;15.00;1.00;;;;;;4801300;29;20553;-38
2022/11/19 08:25:03;;;;;;;1.60;0.85;;;15.10;1.00;;;;;;4815765;29;20050;-38
2022/11/19 08:27:30;;;;;;;1.75;0.82;;;15.00;1.00;;;;;;4825086;29;20099;-38
2022/11/19 08:29:57;;;;;;;3.10;0.80;;;15.00;1.00;;;;;;4823498;29;20050;-38
2022/11/19 08:32:24;;;;;;;1.88;1.02;;;15.00;1.00;;;;;;4824615;29;20137;-39
2022/11/19 08:34:50;;;;;;;2.17;1.25;;;15.00;1.00;;;;;;4808515;29;20122;-38
2022/11/19 08:37:17;;;;;;;1.75;0.90;;;15.00;1.00;;;;;;4808547;29;20074;-38
2022/11/19 08:39:44;;;;;;;2.15;0.80;;;15.00;1.00;;;;;;4825026;29;20057;-37
2022/11/19 08:45:01;;;;;;;2.38;0.98;;;15.00;1.00;;;;;;4815902;29;20127;-38
2022/11/19 08:47:31;;;;;;;2.55;1.63;;;15.00;1.00;;;;;;4824935;29;20502;-37
2022/11/19 08:50:01;;;;;;;3.85;0.90;;;15.00;1.00;;;;;;4823819;29;20138;-38
2022/11/19 08:52:28;;;;;;;1.58;0.90;;;15.00;1.00;;;;;;4824850;29;20506;-38
2022/11/19 08:54:55;;;;;;;1.80;0.90;;;15.00;1.00;;;;;;4825154;29;20129;-38
2022/11/19 08:57:22;;;;;;;3.60;0.90;;;15.00;1.00;;;;;;4824878;29;20046;-38
2022/11/19 08:59:49;;;;;;;7.32;1.00;;;15.00;1.00;;;;;;4824927;29;20046;-38
2022/11/19 09:02:15;;;;;;;1.35;0.73;;;15.10;1.00;;;;;;4824546;29;20050;-38
2022/11/19 09:04:42;;;;;;;1.35;0.82;;;15.00;1.00;;;;;;4808692;29;20129;-38
2022/11/19 09:07:09;;;;;;;1.42;0.80;;;15.00;1.00;;;;;;4824849;29;20145;-39
2022/11/19 09:09:35;;;;;;;1.42;0.93;;;15.00;1.00;;;;;;4823489;29;20050;-38
2022/11/19 09:12:02;;;;;;;1.55;0.90;;;15.10;1.00;;;;;;4824814;29;20133;-38
2022/11/19 09:14:29;;;;;;;2.75;0.90;;;15.00;1.00;;;;;;4807565;29;20486;-39
2022/11/19 09:16:56;;;;;;;1.55;0.85;;;15.00;1.00;;;;;;4823453;29;20077;-38
2022/11/19 09:19:23;;;;;;;1.05;0.65;;;15.00;1.00;;;;;;4824700;29;20046;-38
2022/11/19 09:21:49;;;;;;;2.25;0.70;;;15.10;1.00;;;;;;4824722;29;20050;-38
2022/11/19 09:24:16;;;;;;;1.23;0.70;;;15.10;1.00;;;;;;4824369;29;20050;-38
2022/11/19 09:26:44;;;;;;;1.20;0.80;;;15.10;1.00;;;;;;4824695;29;20050;-38
2022/11/19 09:29:18;;;;;;;2.05;0.52;;;15.10;1.00;;;;;;4809260;29;20091;-39
2022/11/19 09:31:44;;;;;;;2.15;1.20;;;15.10;1.00;;;;;;4808130;29;20146;-39
2022/11/19 09:34:11;;;;;;;1.85;1.00;;;15.10;1.00;;;;;;4824271;29;20133;-39
2022/11/19 09:36:38;;;;;;;2.35;1.00;;;15.10;1.00;;;;;;4824676;29;20046;-39
2022/11/19 09:39:05;;;;;;;1.33;0.73;;;15.10;1.00;;;;;;4808190;29;20495;-39
2022/11/19 09:41:56;;;;;;;1.48;1.13;;;15.10;1.00;;;;;;4808240;29;20047;-39
2022/11/19 09:44:45;;;;;;;2.30;0.70;;;15.20;1.00;;;;;;4807701;29;20061;-39
2022/11/19 09:47:20;;;;;;;1.77;0.95;;;15.10;1.00;;;;;;4824176;29;20054;-39
2022/11/19 09:50:20;;;;;;;1.33;0.65;;;15.10;1.00;;;;;;4824205;29;20050;-39
2022/11/19 09:52:55;;;;;;;2.55;1.00;;;15.10;1.00;;;;;;4824137;29;20310;-39
2022/11/19 09:55:31;;;;;;;1.65;0.80;;;15.10;1.00;;;;;;4824163;29;20142;-39
2022/11/19 09:57:59;;;;;;;1.60;0.80;;;15.20;1.00;;;;;;4822873;29;20114;-39
2022/11/19 10:00:29;;;;;;;1.55;0.75;;;15.20;1.00;;;;;;4823994;29;20050;-39
2022/11/19 10:02:59;;;;;;;2.08;1.10;;;15.20;1.00;;;;;;4823636;29;20078;-39
2022/11/19 10:05:36;;;;;;;1.42;0.82;;;15.20;1.00;;;;;;4807999;29;20440;-39
2022/11/19 10:08:30;;;;;;;1.95;0.90;;;15.20;1.00;;;;;;4823797;29;20414;-39
2022/11/19 10:11:08;;;;;;;1.42;1.02;;;15.20;1.00;;;;;;4807414;29;20050;-39
2022/11/19 10:13:49;;;;;;;2.10;1.05;;;15.20;1.00;;;;;;4823642;29;20528;-39
2022/11/19 10:16:47;;;;;;;1.00;0.60;;;15.20;1.00;;;;;;4823826;29;20054;-39
2022/11/19 10:19:41;;;;;;;1.83;1.10;;;15.20;1.00;;;;;;4823628;29;20461;-39
2022/11/19 10:22:16;;;;;;;1.30;0.90;;;15.20;1.00;;;;;;4822552;29;20050;-39
2022/11/19 10:24:48;;;;;;;1.63;0.77;;;15.20;1.00;;;;;;4823613;29;20103;-37
2022/11/19 10:27:24;;;;;;;1.67;0.95;;;15.20;1.00;;;;;;4822409;29;20062;-39
2022/11/19 10:29:55;;;;;;;1.83;0.75;;;15.20;1.00;;;;;;4823609;29;20054;-39
2022/11/19 10:32:39;;;;;;;1.85;1.20;;;15.20;1.00;;;;;;4823402;29;20099;-39
2022/11/19 10:35:19;;;;;;;1.25;0.73;;;15.20;1.00;;;;;;4823595;29;20537;-39
2022/11/19 10:38:00;;;;;;;1.25;0.80;;;15.20;1.00;;;;;;4813046;24;20051;-40
2022/11/19 10:40:43;;;;;;;1.50;1.05;;;15.30;1.00;;;;;;4798880;29;20074;-39
2022/11/19 10:43:35;;;;;;;1.50;0.75;;;15.30;1.00;;;;;;4804908;29;20050;-39
2022/11/19 10:46:04;;;;;;;1.67;0.93;;;15.20;1.00;;;;;;4805157;29;20104;-39
2022/11/19 10:48:36;;;;;;;1.60;0.90;;;15.20;1.00;;;;;;4805113;29;20430;-39
2022/11/19 10:51:16;;;;;;;1.45;1.02;;;15.30;1.00;;;;;;4805138;29;20144;-39
2022/11/19 10:53:44;;;;;;;1.48;0.85;;;15.20;1.00;;;;;;4804663;29;20058;-39
2022/11/19 10:56:16;;;;;;;2.20;1.42;;;15.20;1.00;;;;;;4804940;29;20526;-39
2022/11/19 10:59:08;;;;;;;2.78;1.20;;;15.20;1.00;;;;;;4805019;29;20555;-39
2022/11/19 11:01:38;;;;;;;2.13;1.13;;;15.20;1.00;;;;;;4804985;29;20054;-40
2022/11/19 11:04:28;;;;;;;1.77;1.00;;;15.20;1.00;;;;;;4804719;29;20127;-40
2022/11/19 11:06:59;;;;;;;2.97;1.08;;;15.20;1.00;;;;;;4804928;29;20053;-40
2022/11/19 11:09:42;;;;;;;2.78;0.90;;;15.20;1.00;;;;;;4804774;29;20146;-40
2022/11/19 11:15:20;;;;;;;1.60;0.70;;;15.20;1.00;;;;;;4804971;29;20116;-40
2022/11/19 11:18:08;;;;;;;2.17;1.20;;;15.20;1.00;;;;;;4804621;29;20499;-39
2022/11/19 11:20:37;;;;;;;1.13;0.75;;;15.20;1.00;;;;;;4804624;29;20086;-40
2022/11/19 11:23:13;;;;;;;1.20;1.00;;;15.20;1.00;;;;;;4804505;29;20055;-40
2022/11/19 11:25:49;;;;;;;1.77;1.55;;;15.20;1.00;;;;;;4804849;29;20045;-39
2022/11/19 11:28:19;;;;;;;0.90;0.77;;;15.20;1.00;;;;;;4804851;29;20108;-39
2022/11/19 11:31:00;;;;;;;2.72;1.10;;;15.20;1.00;;;;;;4804891;29;20158;-39
2022/11/19 11:33:41;;;;;;;1.45;0.90;;;15.20;1.00;;;;;;4804527;29;20055;-39
2022/11/19 11:36:12;;;;;;;1.95;0.90;;;15.10;1.00;;;;;;4804687;29;20081;-40
2022/11/19 11:38:48;;;;;;;2.28;1.20;;;15.10;1.00;;;;;;4808207;29;20565;-39
2022/11/19 11:41:32;;;;;;;2.38;0.90;;;15.20;1.00;;;;;;4792157;29;20058;-39
2022/11/19 11:44:23;;;;;;;3.05;1.17;;;15.10;1.00;;;;;;4807783;29;20182;-39
2022/11/19 11:46:53;;;;;;;1.08;0.80;;;15.10;1.00;;;;;;4808291;29;20046;-39
2022/11/19 11:49:32;;;;;;;2.25;1.10;;;15.10;1.00;;;;;;4808322;29;20050;-39
2022/11/19 11:52:18;;;;;;;1.30;0.82;;;15.10;1.00;;;;;;4807921;29;20051;-39
2022/11/19 11:54:59;;;;;;;1.63;1.08;;;15.10;1.00;;;;;;4807939;29;20047;-39
2022/11/19 11:57:36;;;;;;;4.60;0.80;;;15.10;1.00;;;;;;4806685;29;20047;-39
2022/11/19 12:00:36;;;;;;;1.70;0.93;;;15.10;1.00;;;;;;4808021;29;20479;-39
2022/11/19 12:03:11;;;;;;;2.47;1.17;;;15.00;1.00;;;;;;4807157;29;20067;-39
2022/11/19 12:06:06;;;;;;;1.50;0.80;;;15.10;1.00;;;;;;4807728;29;20045;-39
2022/11/19 12:08:44;;;;;;;1.88;0.85;;;15.00;1.00;;;;;;4807831;29;20122;-39
2022/11/19 12:11:53;;;;;;;1.17;0.80;;;15.10;1.00;;;;;;4807745;29;20129;-39
2022/11/19 12:14:20;;;;;;;1.30;0.90;;;15.00;1.00;;;;;;4807196;29;20043;-39
2022/11/19 12:16:59;;;;;;;1.38;0.90;;;15.00;1.00;;;;;;4807547;29;20415;-39
2022/11/19 12:20:01;;;;;;;1.20;0.73;;;15.00;1.00;;;;;;4791327;29;20622;-39
2022/11/19 12:23:00;;;;;;;1.75;1.08;;;15.00;1.00;;;;;;4806791;29;20051;-39
2022/11/19 12:25:45;;;;;;;2.08;0.77;;;15.00;1.00;;;;;;4807677;29;20054;-39
2022/11/19 12:28:23;;;;;;;1.92;1.00;;;15.00;1.00;;;;;;4807454;29;20047;-39
2022/11/19 12:30:56;;;;;;;1.60;0.88;;;15.00;1.00;;;;;;4807556;29;20234;-39
2022/11/19 12:34:00;;;;;;;1.70;1.15;;;15.00;1.00;;;;;;4807134;29;20046;-39
2022/11/19 12:36:27;;;;;;;;;;;15.00;1.00;;;;;;4807564;29;20057;-39
2022/11/19 12:39:06;;;;;;;1.73;0.88;;;14.90;1.00;;;;;;4807053;29;20016;-39
2022/11/19 12:41:44;;;;;;;2.08;0.85;;;14.90;1.00;;;;;;4807362;29;20111;-39
2022/11/19 12:44:48;;;;;;;1.25;0.70;;;14.90;1.00;;;;;;4806766;29;20057;-39
2022/11/19 12:47:27;;;;;;;1.60;1.20;;;14.90;1.00;;;;;;4805371;29;20063;-39
2022/11/19 12:50:31;;;;;;;1.67;1.13;;;14.90;1.00;;;;;;4806458;29;20051;-39
2022/11/19 12:53:04;;;;;;;2.67;0.90;;;14.90;1.00;;;;;;4806698;29;20139;-39
2022/11/19 12:55:45;;;;;;;1.73;1.00;;;14.90;1.00;;;;;;4806977;29;20115;-39
2022/11/19 12:58:42;;;;;;;1.58;0.73;;;14.90;1.00;;;;;;4806770;29;20046;-39
2022/11/19 13:01:14;;;;;;;2.20;1.48;;;14.90;1.00;;;;;;4807015;29;20491;-39
2022/11/19 13:03:53;;;;;;;1.65;1.15;;;14.90;1.00;;;;;;4790437;29;20047;-39
2022/11/19 13:06:45;;;;;;;1.73;0.90;;;14.90;1.00;;;;;;4806535;29;20059;-39
2022/11/19 13:09:27;;;;;;;2.38;1.23;;;14.90;1.00;;;;;;4806817;29;20043;-39
2022/11/19 13:11:59;;;;;;;1.35;0.77;;;14.90;1.00;;;;;;4806643;29;20047;-39
2022/11/19 13:14:38;;;;;;;1.35;0.82;;;14.80;1.00;;;;;;4806286;29;20043;-39
2022/11/19 13:17:35;;;;;;;1.52;0.98;;;14.90;1.00;;;;;;4806579;29;20085;-39
2022/11/19 13:20:23;;;;;;;1.67;1.13;;;14.80;1.00;;;;;;4806351;29;20078;-39
2022/11/19 13:22:54;;;;;;;1.35;1.00;;;14.80;1.00;;;;;;4805030;29;20189;-39
2022/11/19 13:25:33;;;;;;;1.50;0.98;;;14.80;1.00;;;;;;4806612;29;20469;-39
2022/11/19 13:28:02;;;;;;;2.38;1.10;;;14.80;1.00;;;;;;4806594;29;20091;-39
2022/11/19 13:30:32;;;;;;;2.08;1.30;;;14.80;1.00;;;;;;4806253;29;20541;-39
2022/11/19 13:33:30;;;;;;;1.20;0.80;;;14.80;1.00;;;;;;4806042;29;20137;-38
2022/11/19 13:36:04;;;;;;;2.83;1.33;;;14.80;1.00;;;;;;4806268;29;20038;-38
2022/11/19 13:38:49;;;;;;;1.80;1.05;;;14.80;1.00;;;;;;4806038;29;20058;-39
2022/11/19 13:41:33;;;;;;;2.03;0.82;;;14.80;1.00;;;;;;4806254;29;20099;-38
2022/11/19 13:46:53;;;;;;;5.90;1.10;;;14.70;1.00;;;;;;4806079;29;20489;-38
2022/11/19 13:49:27;;;;;;;1.52;1.00;;;14.70;1.00;;;;;;4806161;29;20046;-38
2022/11/19 13:52:08;;;;;;;1.60;0.93;;;14.80;1.00;;;;;;4805866;29;20067;-39
2022/11/19 13:54:38;;;;;;;2.08;1.27;;;14.70;1.00;;;;;;4805833;29;20055;-39